Tips voor optimaal zoeken

Zoek op trefwoorden of stel een vraag
Typ een trefwoord zoals beurskoers, of stel een vraag zoals Wat is het laatste nieuws over Amerika?.
Exacte zinnen zoeken
Zet aanhalingstekens om een exacte woordcombinatie te vinden, bijvoorbeeld "Johan Cruijff ArenA".
Resultaten filteren
Na het zoeken kunt u filteren op publicatieperiode, bron, onderwerp en auteur.
Zoekopdrachten volgen
Wilt u updates ontvangen over een onderwerp? Via "Mijn nieuws" kunt u een term volgen.
Close sub menu
NASDAQ
NY-Nasdaq Composite 26.370,8891 -31,53 -0,12% 23:05
Stijgers 1 dag
Dalers 1 dag
Indices 1 dag
CrowdStrike Holdings Inc +5,8%
Tesla Inc +5,5%
QUALCOMM Inc +3,8%
Fortinet Inc +3,0%
Palo Alto Networks Inc +2,8%
Micron Technology Inc +2,8%
Zscaler Inc +2,3%
Atlassian Corporation PLC +2,0%
Baker Hughes Company +1,8%
Moderna Inc +1,7%
NVIDIA Corporation +1,5%
Diamondback Energy Inc +1,4%
Workday Inc -3,6%
Airbnb Inc -3,3%
Lucid Group Inc -3,2%
Booking Holdings Inc -3,2%
Marriott International Inc -2,7%
Amazon.com Inc -2,5%
Marvell Technology Inc -2,3%
Enphase Energy Inc -2,2%
Alphabet Inc -2,2%
Alphabet Inc -2,1%
Monster Beverage Corporation -2,0%
PDD Holdings Inc -2,0%
AEX* 1.105,77-0,6%
Midkap* 1.120,68-0,8%
AMS Next 20®* 1.596,61-0,5%
FTSE100 10.824,26--
Dow Jones 53.185,90-0,7%
NASDAQ 26.370,8891-0,1%
S&P500 7.686,14-0,3%
S&P Future 7.701,25-0,3%
BEL20** 5.834,28-0,6%
CAC 40** 8.401,18+1,0%
DAX 26.258,11-1,2%
* real time    ** slotkoers
NaamKoersVorige+/- %1 wk1 mndDit jaar 1 jaarTijd
Adobe Inc 292,79 291,52 +0,4% +5,9% +17,0% -16,7% -17,6% 22:15
Advanced Micro Devices Inc 470,72 465,58 +1,1% -1,6% +2,4% +117,4% +176,2% 22:15
Airbnb Inc 183,22 189,43 -3,3% +1,1% +23,7% +39,6% +45,2% 22:15
Align Technology Inc 159,79 157,58 +1,4% -3,1% -10,3% +0,9% +11,7% 22:15
Alphabet Inc 335,41 342,88 -2,2% +0,3% +3,1% +9,3% +61,5% 22:15
Alphabet Inc 339,35 346,59 -2,1% +0,5% +3,9% +10,7% +63,8% 22:15
Amazon.com Inc 259,77 266,43 -2,5% +3,0% +15,4% +15,4% +15,0% 22:15
American Electric Power Company 122,43 122,31 +0,1% +1,1% -8,1% +6,1% +9,4% 22:15
Amgen Inc 429,88 432,42 -0,6% -1,6% +10,0% +32,1% +51,4% 22:15
Analog Devices Inc 362,14 361,78 +0,1% -3,0% -1,1% +33,4% +42,3% 22:15
Ansys 374,30 374,30 -- -- -4,7% +11,0% +15,2% 22:00
Apple Inc 316,85 319,70 -0,9% +3,3% -6,0% +17,6% +37,5% 22:15
Applied Materials Inc 458,39 461,67 -0,7% -6,2% -3,1% +79,6% +179,3% 22:15
ASML Holding NV 1.696,01 1.696,16 0,0% -3,8% +7,2% +58,5% +122,2% 22:19
AstraZeneca Plc 162,13 162,70 -0,4% -2,0% -5,7% -11,5% +1,7% 22:15
Atlassian Corporation PLC 194,17 190,42 +2,0% +10,8% +90,5% +17,4% +7,7% 22:15
Autodesk Inc 258,53 260,66 -0,8% +2,7% +9,8% -11,9% -9,6% 22:15
Automatic Data Processing Inc 286,16 287,48 -0,5% +2,4% +8,8% +11,8% -5,5% 22:15
Baker Hughes Company 63,55 62,41 +1,8% +0,1% +6,8% +37,0% +37,0% 22:15
Biogen Inc 216,65 218,50 -0,8% +0,8% +6,3% +24,2% +64,7% 22:15
Booking Holdings Inc 199,09 205,63 -3,2% -1,9% +3,2% -4,0% -9,0% 22:15
Broadcom Inc 370,34 368,79 +0,4% +0,1% -3,2% +6,6% +19,5% 22:15
Cadence Design Systems Inc 338,78 340,39 -0,5% +6,7% -1,3% +8,9% -3,9% 22:15
Charter Communications Inc 152,44 153,62 -0,8% +2,3% +9,8% -26,4% -41,7% 22:15
Cintas Corporation 201,79 204,18 -1,2% +0,2% -5,0% +8,6% -2,0% 22:15
Cisco Systems Inc 110,49 109,93 +0,5% -1,0% -4,9% +42,7% +58,3% 22:15
Cognizant Technology Solutions Corp 64,58 64,04 +0,8% +3,5% +27,3% -22,8% -10,7% 22:15
Comcast Corp 26,62 27,06 -1,6% +0,8% +11,9% -9,5% -19,4% 22:15
Constellation Energy Corporation 274,77 276,75 -0,7% +1,4% +6,5% -21,7% -13,4% 22:15
Copart Inc 32,99 32,99 0,0% -2,4% +7,5% -15,7% -32,3% 22:15
CoStar Group Inc 32,07 32,22 -0,5% -0,1% +6,2% -52,1% -64,3% 22:15
Costco Wholesale Corporation 943,89 945,47 -0,2% -0,2% -2,2% +9,6% +0,1% 22:15
CrowdStrike Holdings Inc 231,00 218,40 +5,8% +13,8% +20,1% +86,4% +97,6% 22:15
CSX Corporation 50,51 51,28 -1,5% -0,6% +0,9% +41,5% +57,0% 22:09
Datadog Inc 237,04 236,98 0,0% +0,6% -5,5% +74,3% +68,1% 22:15
DexCom Inc 91,06 90,82 +0,3% -1,6% +21,3% +36,8% +21,0% 22:15
Diamondback Energy Inc 200,48 197,67 +1,4% -6,2% +3,9% +31,5% +32,5% 22:15
Dollar Tree Inc 126,59 128,26 -1,3% -2,4% +1,2% +4,3% +14,0% 22:15
eBay Inc 103,56 105,62 -2,0% +1,4% -10,1% +21,3% +13,8% 22:15
Electronic Arts Inc 209,70 209,70 -- -- +0,4% +2,6% +22,6% 22:15
Enphase Energy Inc 36,42 37,25 -2,2% -3,5% +2,6% +16,2% -0,9% 22:15
Exelon Corporation 43,72 43,93 -0,5% +0,3% -7,1% +0,8% +0,4% 22:15
Fastenal Company 49,31 49,78 -0,9% -2,9% +3,5% +24,0% -0,8% 22:09
Fortinet Inc 170,93 166,00 +3,0% +8,1% +10,7% +109,0% +109,4% 22:15
Gilead Sciences Inc 146,34 145,68 +0,5% -0,3% +8,5% +18,7% +29,4% 22:15
Global Foundries Inc 44,69 44,76 -0,2% -6,8% -8,7% +28,2% +33,3% 22:15
Honeywell International Inc 213,53 217,43 -1,8% +0,7% -12,0% +11,5% -1,8% 22:15
IDEXX Laboratories Inc 556,69 554,99 +0,3% -0,3% -2,6% -18,0% -14,2% 22:15
Illumina Inc 213,63 215,59 -0,9% -1,7% +11,7% +64,4% +117,4% 22:15
Intel Corporation 89,51 89,47 0,0% -0,7% +3,7% +142,5% +258,9% 22:15
Intuit Inc 359,30 358,06 +0,3% -2,4% +14,4% -45,9% -46,4% 22:15
Intuitive Surgical Inc 376,86 372,60 +1,1% -1,6% +3,0% -34,2% -21,4% 22:15
JD com Inc 28,24 28,74 -1,7% -2,1% -9,6% +0,1% -5,4% 22:15
Keurig Dr Pepper Inc 31,86 32,18 -1,0% +0,4% +3,5% +14,9% +9,9% 22:15
KLA Corporation 175,45 175,54 -0,1% -4,6% -8,0% +44,5% +96,4% 22:15
Kraft Heinz Company 25,67 25,70 -0,1% +0,5% -5,9% +6,0% -7,0% 22:15
Lam Research Corporation 301,49 301,90 -0,1% -3,9% +12,0% +76,4% +190,0% 22:15
Lucid Group Inc 4,85 5,01 -3,2% -9,1% -36,6% -52,6% -75,8% 22:09
Lululemon Athletica Inc 120,26 120,81 -0,5% -0,2% +0,4% -41,9% -41,1% 22:15
Marriott International Inc 341,76 351,08 -2,7% -1,5% -8,5% +13,2% +29,9% 22:15
Marvell Technology Inc 211,66 216,62 -2,3% -8,6% +24,2% +154,9% +180,5% 22:15
MercadoLibre Inc 1.936,20 1.966,25 -1,5% +2,3% +5,6% -2,4% -20,5% 22:15
Meta Platforms Inc 572,34 578,02 -1,0% +5,1% -2,6% -12,4% -23,0% 22:15
Microchip Technology Inc 73,45 72,93 +0,7% -4,1% -3,7% +14,5% +11,8% 22:15
Micron Technology Inc 958,73 932,86 +2,8% -3,5% +13,7% +226,8% +664,6% 22:17
Microsoft Corporation 507,29 513,53 -1,2% +6,3% +30,6% +6,2% +0,8% 22:15
Moderna Inc 140,34 137,99 +1,7% -4,9% +147,3% +367,9% +463,9% 22:24
Mondelez International Inc 62,07 62,36 -0,5% -3,2% -0,2% +15,8% +1,8% 22:15
Monster Beverage Corporation 45,92 46,86 -2,0% -1,9% -4,1% +22,2% +51,1% 22:15
Netflix Inc 81,05 81,72 -0,8% +2,7% +12,9% -12,8% -33,6% 22:15
NVIDIA Corporation 220,78 217,55 +1,5% +1,3% +10,4% +16,6% +20,7% 22:15
NXP Semiconductors NV 224,64 223,58 +0,5% -0,9% -13,7% +3,0% -6,5% 22:15
O Reilly Automotive Inc 88,80 88,50 +0,3% -0,7% -2,9% -3,0% -14,9% 22:15
Old Dominion Freight Line Inc 199,96 198,63 +0,7% -3,8% -12,2% +26,7% +32,7% 22:15
PACCAR Inc 124,13 125,34 -1,0% -4,3% -9,3% +14,5% +24,5% 22:15
Palo Alto Networks Inc 382,13 371,59 +2,8% +3,8% +16,5% +101,7% +94,5% 22:15
Paychex Inc 127,34 127,04 +0,2% +2,1% +6,9% +13,2% -8,4% 22:15
PayPal Holdings Inc 52,67 53,66 -1,9% -12,8% -8,0% -8,1% -23,4% 22:15
PDD Holdings Inc 84,00 85,69 -2,0% -3,0% 0,0% -24,4% -29,9% 22:15
PepsiCo Inc 140,34 141,07 -0,5% -1,7% -1,3% -1,7% -4,0% 22:15
QUALCOMM Inc 170,48 164,19 +3,8% +2,1% +0,8% -4,0% +2,1% 22:15
Regeneron Pharmaceuticals Inc 799,08 794,19 +0,6% -4,8% +14,2% +2,9% +37,0% 22:15
Rivian Automotive Inc 16,06 16,07 -0,1% -5,3% -3,7% -18,5% +17,8% 22:15
Ross Stores Inc 228,54 228,55 0,0% -4,4% -9,0% +26,9% +53,3% 22:15
Seagen 228,89 228,74 -- -- +7,2% +78,1% +78,3% 22:00
SiriusXM Holdings Inc 28,17 28,54 -1,3% -0,5% -9,9% +42,7% +22,1% 22:15
Starbucks Corporation 106,25 107,85 -1,5% +0,7% +4,6% +28,1% +22,5% 22:09
Synopsys Inc 439,59 442,61 -0,7% +11,2% +15,3% -5,8% -27,7% 22:15
T Mobile US Inc 180,44 181,37 -0,5% -0,9% -0,6% -10,7% -27,6% 22:15
Tesla Inc 367,95 348,75 +5,5% -3,9% +13,4% -22,5% +0,8% 22:15
Texas Instruments Incorporated 260,91 258,64 +0,9% -2,2% -6,7% +49,1% +26,7% 22:15
Verisk Analytics Inc 193,78 191,77 +1,0% +2,3% -9,7% -14,3% -28,0% 22:09
Vertex Pharmaceuticals Inc 544,52 541,69 +0,5% -1,2% +10,5% +19,5% +38,2% 22:15
Walgreens Boots Alliance 11,98 11,98 -- -- +0,5% +28,4% +40,6% 22:00
Warner Brothers Discovery Inc 28,53 28,77 -0,8% +0,8% +12,3% -0,2% +138,7% 22:15
Workday Inc 197,45 204,72 -3,6% +2,4% +28,2% -4,7% -10,4% 23:00
Xcel Energy Inc 75,69 76,45 -1,0% +0,2% -4,8% +3,5% +5,7% 22:15
Zoom Communications Inc 96,68 98,43 -1,8% -8,4% +7,6% +14,1% +21,8% 22:15
Zscaler Inc 188,39 184,23 +2,3% +1,4% +21,5% -18,1% -34,3% 22:15
Powered by

Schakel browser notificaties in

Schakel browser notificaties in om meldingen te ontvangen op dit apparaat.

Browser notificaties inschakelen

U heeft browser notificaties voor fd.nl eerder geweigerd. Ga naar browser instellingen en sta browser notificaties toe voor fd.nl. De precieze handelingen zijn afhankelijk van uw browser.

U volgt een onderwerp

Wanneer deze zoekterm in een artikel voorkomt, zult u deze terugvinden in Mijn nieuws onder ‘Eurobonds’.

Wilt u via de FD App meldingen ontvangen voor dit onderwerp?

Wilt u via de FD App meldingen ontvangen voor dit onderwerp?

Ons privacy statement is van toepassing.

Meldingen

Wanneer deze zoekterm in een artikel voorkomt, zult u deze terugvinden in Mijn nieuws onder ‘Eurobonds’.

Wilt u via de FD App meldingen ontvangen voor dit onderwerp?

Wilt u via de FD App meldingen ontvangen voor dit onderwerp?